EmailTwitter


Observations de surface / France / LFMP (07747)

Régions: Québec | Canada | États-Unis | Europe | France | UK | Ailleurs
Station
Affichage
Infos & localisation pour LFMP (07747) | Aide pour décoder les METARs

Observations prises le 2018-06-19 à 23H30 UTC à PERPIGNAN/RIVESA, FR (LFMP)

Température: 22.0 Celsius

Point de rosée: 16.0 Celsius

Humidité relative: 69%

Indice Humidex: 27.

Vents: Ouest à 6 km/h ou 3 noeuds.

Pression au niveau moyen de la mer: 101.90 kilopascals.

Observation METAR:

LFMP 192330Z AUTO 27003KT CAVOK 22/16 Q1019=